createdAt,value
2023-11-20T00:01:50.143Z,6.88
2023-11-20T00:04:54.021Z,6.78
2023-11-20T00:07:59.201Z,6.75
2023-11-20T00:11:02.525Z,6.65
2023-11-20T00:14:13.032Z,6.76
2023-11-20T00:17:18.445Z,6.61
2023-11-20T00:20:21.439Z,6.80
2023-11-20T00:23:24.381Z,6.74
2023-11-20T00:26:27.543Z,6.70
2023-11-20T00:29:34.506Z,6.70
2023-11-20T00:32:37.662Z,6.70
2023-11-20T00:35:42.556Z,6.92
2023-11-20T00:38:46.423Z,7.00
2023-11-20T00:41:50.312Z,6.81
2023-11-20T00:44:53.241Z,6.70
2023-11-20T00:47:56.411Z,6.81
2023-11-20T00:50:59.772Z,6.97
2023-11-20T00:54:02.993Z,6.76
2023-11-20T00:57:06.507Z,6.73
2023-11-20T01:00:10.304Z,6.93
2023-11-20T01:03:13.633Z,6.90
2023-11-20T01:06:19.584Z,7.10
2023-11-20T01:09:22.626Z,6.92
2023-11-20T01:12:28.719Z,6.78
2023-11-20T01:15:35.907Z,6.92
2023-11-20T01:18:38.980Z,6.94
2023-11-20T01:21:43.575Z,6.87
2023-11-20T01:24:46.768Z,6.70
2023-11-20T01:27:49.811Z,6.52
2023-11-20T01:30:53.127Z,6.45
2023-11-20T01:33:56.287Z,6.57
2023-11-20T01:36:59.978Z,6.73
2023-11-20T01:40:05.775Z,6.81
2023-11-20T01:43:09.082Z,6.70
2023-11-20T01:46:14.827Z,6.76
2023-11-20T01:49:18.173Z,6.73
2023-11-20T01:52:22.415Z,6.75
2023-11-20T01:55:25.657Z,6.79
2023-11-20T01:58:29.746Z,6.82
2023-11-20T02:01:34.332Z,6.82
2023-11-20T02:04:40.214Z,6.86
2023-11-20T02:07:43.704Z,6.89
2023-11-20T02:10:52.975Z,6.92
2023-11-20T02:13:57.275Z,6.95
2023-11-20T02:17:00.568Z,7.02
2023-11-20T02:20:04.749Z,7.20
2023-11-20T02:23:08.299Z,7.05
2023-11-20T02:26:14.230Z,6.99
2023-11-20T02:29:32.170Z,6.96
2023-11-20T02:32:35.216Z,6.96
2023-11-20T02:35:38.228Z,6.92
2023-11-20T02:38:43.383Z,6.83
2023-11-20T02:41:46.437Z,6.90
2023-11-20T02:44:51.311Z,6.82
2023-11-20T02:47:54.256Z,6.75
2023-11-20T02:50:57.564Z,6.68
2023-11-20T02:54:00.967Z,6.69
2023-11-20T02:57:07.230Z,6.63
2023-11-20T03:00:13.591Z,6.59
2023-11-20T03:03:18.495Z,6.58
2023-11-20T03:06:21.768Z,6.56
2023-11-20T03:09:24.762Z,6.53
2023-11-20T03:12:27.897Z,6.50
2023-11-20T03:15:31.046Z,6.51
2023-11-20T03:18:34.281Z,6.53
2023-11-20T03:21:41.548Z,6.48
2023-11-20T03:24:44.499Z,6.63
2023-11-20T03:27:48.112Z,6.57
2023-11-20T03:30:51.099Z,6.61
2023-11-20T03:33:58.920Z,6.66
2023-11-20T03:37:02.665Z,6.62
2023-11-20T03:40:06.982Z,6.61
2023-11-20T03:43:10.148Z,6.64
2023-11-20T03:46:13.286Z,6.80
2023-11-20T03:49:16.194Z,6.81
2023-11-20T03:52:19.203Z,6.77
2023-11-20T03:55:22.537Z,6.66
2023-11-20T03:58:25.679Z,6.68
2023-11-20T04:01:28.705Z,6.63
2023-11-20T04:04:31.827Z,6.62
2023-11-20T04:07:35.147Z,6.62
2023-11-20T04:10:39.685Z,6.66
2023-11-20T04:13:42.773Z,6.70
2023-11-20T04:16:47.229Z,6.65
2023-11-20T04:19:50.681Z,6.61
2023-11-20T04:22:55.868Z,6.58
2023-11-20T04:25:59.350Z,6.55
2023-11-20T04:29:03.149Z,6.51
2023-11-20T04:32:06.403Z,6.45
2023-11-20T04:35:09.312Z,6.45
2023-11-20T04:38:12.242Z,6.50
2023-11-20T04:41:15.198Z,6.53
2023-11-20T04:44:18.340Z,6.52
2023-11-20T04:47:21.338Z,6.54
2023-11-20T04:50:24.352Z,6.62
2023-11-20T04:53:27.644Z,6.68
2023-11-20T04:56:30.782Z,6.79
2023-11-20T04:59:33.723Z,6.70
2023-11-20T05:02:36.793Z,6.70
2023-11-20T05:05:40.637Z,6.73
2023-11-20T05:08:43.863Z,6.77
2023-11-20T05:11:48.145Z,6.93
2023-11-20T05:14:50.994Z,6.97
2023-11-20T05:17:53.888Z,6.97
2023-11-20T05:20:56.785Z,6.92
2023-11-20T05:24:02.494Z,6.79
2023-11-20T05:27:05.576Z,6.74
2023-11-20T05:30:09.490Z,6.71
2023-11-20T05:33:13.109Z,6.65
2023-11-20T05:36:16.449Z,6.67
2023-11-20T05:39:20.276Z,6.67
2023-11-20T05:42:24.578Z,6.67
2023-11-20T05:45:28.458Z,6.62
2023-11-20T05:48:31.555Z,6.59
2023-11-20T05:51:34.413Z,6.58
2023-11-20T05:54:38.239Z,6.57
2023-11-20T05:57:41.417Z,6.52
2023-11-20T06:00:44.525Z,6.54
2023-11-20T06:03:48.191Z,6.49
2023-11-20T06:06:51.105Z,6.49
2023-11-20T06:09:54.441Z,6.48
2023-11-20T06:12:57.093Z,6.49
2023-11-20T06:16:00.294Z,6.48
2023-11-20T06:19:02.999Z,6.45
2023-11-20T06:22:06.170Z,6.44
2023-11-20T06:25:09.270Z,6.62
2023-11-20T06:28:12.640Z,6.58
2023-11-20T06:31:15.295Z,6.66
2023-11-20T06:34:18.696Z,6.55
2023-11-20T06:37:22.981Z,6.63
2023-11-20T06:40:26.409Z,6.74
2023-11-20T06:43:29.473Z,6.78
2023-11-20T06:46:33.019Z,6.79
2023-11-20T06:49:42.346Z,6.79
2023-11-20T06:52:45.588Z,6.74
2023-11-20T06:55:48.378Z,6.80
2023-11-20T06:58:52.617Z,6.82
2023-11-20T07:01:56.359Z,6.72
2023-11-20T07:05:00.979Z,6.81
2023-11-20T07:08:08.217Z,6.80
2023-11-20T07:11:12.113Z,6.87
2023-11-20T07:14:15.491Z,6.93
2023-11-20T07:17:18.903Z,7.03
2023-11-20T07:20:21.843Z,7.16
2023-11-20T07:23:25.214Z,7.40
2023-11-20T07:26:27.982Z,7.71
2023-11-20T07:29:35.574Z,7.97
2023-11-20T07:32:38.433Z,8.07
2023-11-20T07:35:41.742Z,8.21
2023-11-20T07:38:49.632Z,8.47
2023-11-20T07:41:52.999Z,8.91
2023-11-20T07:44:55.882Z,9.48
2023-11-20T07:47:59.171Z,9.46
2023-11-20T07:51:03.896Z,9.49
2023-11-20T07:54:12.853Z,9.54
2023-11-20T07:57:16.597Z,9.60
2023-11-20T08:00:20.377Z,9.81
2023-11-20T08:03:23.315Z,9.94
2023-11-20T08:06:26.514Z,10.13
2023-11-20T08:09:30.081Z,10.31
2023-11-20T08:12:32.981Z,11.12
2023-11-20T08:15:35.963Z,11.45
2023-11-20T08:18:39.237Z,11.26
2023-11-20T08:21:42.735Z,10.81
2023-11-20T08:24:45.805Z,10.57
2023-11-20T08:28:18.027Z,11.65
2023-11-20T08:31:21.236Z,12.90
2023-11-20T08:34:24.485Z,12.82
2023-11-20T08:37:27.384Z,12.29
2023-11-20T08:40:31.255Z,11.74
2023-11-20T08:43:34.357Z,11.23
2023-11-20T08:46:38.770Z,10.89
2023-11-20T08:49:43.740Z,10.68
2023-11-20T08:52:47.641Z,10.63
2023-11-20T08:55:50.676Z,10.47
2023-11-20T08:58:53.725Z,10.37
2023-11-20T09:01:58.258Z,10.31
2023-11-20T09:05:02.008Z,10.24
2023-11-20T09:08:05.135Z,10.24
2023-11-20T09:11:09.351Z,10.24
2023-11-20T09:14:13.672Z,10.24
2023-11-20T09:17:16.740Z,10.20
2023-11-20T09:20:23.504Z,10.14
2023-11-20T09:23:27.973Z,10.18
2023-11-20T09:26:30.973Z,10.32
2023-11-20T09:29:33.926Z,10.49
2023-11-20T09:32:36.988Z,10.53
2023-11-20T09:35:40.070Z,10.57
2023-11-20T09:38:43.415Z,10.45
2023-11-20T09:41:46.224Z,10.37
2023-11-20T09:44:50.835Z,10.36
2023-11-20T09:47:58.539Z,10.37
2023-11-20T09:51:10.927Z,10.52
2023-11-20T09:54:21.372Z,10.68
2023-11-20T09:57:28.448Z,10.76
2023-11-20T10:00:31.441Z,10.89
2023-11-20T10:03:40.119Z,10.96
2023-11-20T10:06:45.875Z,11.06
2023-11-20T10:09:52.948Z,11.19
2023-11-20T10:12:59.158Z,11.39
2023-11-20T10:16:03.234Z,11.65
2023-11-20T10:19:09.298Z,11.96
2023-11-20T10:22:17.331Z,12.36
2023-11-20T10:25:20.552Z,12.49
2023-11-20T10:28:26.568Z,12.60
2023-11-20T10:31:29.591Z,12.84
2023-11-20T10:34:36.147Z,12.98
2023-11-20T10:37:52.940Z,13.14
2023-11-20T10:40:59.509Z,13.23
2023-11-20T10:44:03.048Z,13.36
2023-11-20T10:47:07.691Z,13.30
2023-11-20T10:50:26.913Z,13.31
2023-11-20T10:53:43.945Z,13.26
2023-11-20T10:56:47.888Z,13.05
2023-11-20T10:59:54.275Z,13.20
2023-11-20T11:03:07.641Z,13.27
2023-11-20T11:06:17.623Z,13.20
2023-11-20T11:09:21.639Z,13.08
2023-11-20T11:12:30.573Z,13.10
2023-11-20T11:15:33.351Z,13.22
2023-11-20T11:18:39.027Z,13.16
2023-11-20T11:21:53.694Z,13.15
2023-11-20T11:25:03.614Z,13.33
2023-11-20T11:28:10.939Z,13.43
2023-11-20T11:31:19.672Z,13.55
2023-11-20T11:34:32.944Z,13.58
2023-11-20T11:37:54.869Z,13.58
2023-11-20T11:41:21.121Z,13.69
2023-11-20T11:45:02.439Z,13.83
2023-11-20T11:48:08.107Z,14.01
2023-11-20T11:51:22.402Z,14.11
2023-11-20T11:54:28.073Z,14.13
2023-11-20T11:57:35.105Z,14.13
2023-11-20T12:00:38.338Z,14.24
2023-11-20T12:03:41.976Z,14.34
2023-11-20T12:06:45.014Z,14.35
2023-11-20T12:10:01.787Z,14.38
2023-11-20T12:13:11.237Z,14.74
2023-11-20T12:16:20.998Z,14.94
2023-11-20T12:19:24.879Z,15.11
2023-11-20T12:22:28.400Z,15.09
2023-11-20T12:25:31.383Z,15.06
2023-11-20T12:28:35.453Z,14.94
2023-11-20T12:31:38.911Z,14.75
2023-11-20T12:34:42.308Z,14.46
2023-11-20T12:37:46.355Z,14.28
2023-11-20T12:40:54.198Z,14.11
2023-11-20T12:43:57.732Z,14.01
2023-11-20T12:47:05.851Z,14.03
2023-11-20T12:50:14.894Z,13.99
2023-11-20T12:53:22.717Z,13.84
2023-11-20T12:56:26.855Z,13.81
2023-11-20T12:59:31.197Z,13.77
2023-11-20T13:02:34.347Z,13.62
2023-11-20T13:05:37.828Z,13.67
2023-11-20T13:08:41.147Z,13.44
2023-11-20T13:11:44.510Z,13.42
2023-11-20T13:15:00.759Z,13.36
2023-11-20T13:18:06.949Z,13.24
2023-11-20T13:21:20.449Z,13.32
2023-11-20T13:24:23.694Z,13.40
2023-11-20T13:27:29.545Z,13.52
2023-11-20T13:30:32.909Z,13.57
2023-11-20T13:33:37.230Z,13.79
2023-11-20T13:36:41.249Z,13.85
2023-11-20T13:39:43.959Z,13.83
2023-11-20T13:42:50.224Z,13.64
2023-11-20T13:45:53.334Z,13.51
2023-11-20T13:48:56.818Z,13.41
2023-11-20T13:51:59.516Z,13.46
2023-11-20T13:55:02.892Z,13.57
2023-11-20T13:58:06.774Z,13.60
2023-11-20T14:01:13.418Z,13.64
2023-11-20T14:04:20.461Z,13.60
2023-11-20T14:07:23.595Z,13.63
2023-11-20T14:10:26.540Z,13.58
2023-11-20T14:13:30.105Z,13.60
2023-11-20T14:16:33.875Z,13.69
2023-11-20T14:19:37.051Z,13.67
2023-11-20T14:22:42.892Z,13.64
2023-11-20T14:26:00.617Z,13.53
2023-11-20T14:29:09.190Z,13.51
2023-11-20T14:32:14.930Z,13.41
2023-11-20T14:35:18.270Z,13.34
2023-11-20T14:38:21.290Z,13.50
2023-11-20T14:41:24.292Z,13.36
2023-11-20T14:44:30.031Z,13.58
2023-11-20T14:47:32.959Z,13.33
2023-11-20T14:50:35.966Z,13.11
2023-11-20T14:53:40.161Z,12.97
2023-11-20T14:56:43.053Z,13.02
2023-11-20T14:59:46.042Z,13.09
2023-11-20T15:02:53.547Z,13.02
2023-11-20T15:05:56.847Z,13.08
2023-11-20T15:08:59.726Z,13.23
2023-11-20T15:12:02.741Z,12.96
2023-11-20T15:15:07.464Z,12.82
2023-11-20T15:18:10.431Z,12.76
2023-11-20T15:21:13.396Z,12.94
2023-11-20T15:24:16.482Z,12.75
2023-11-20T15:27:19.469Z,12.78
2023-11-20T15:30:22.402Z,12.79
2023-11-20T15:33:25.273Z,12.92
2023-11-20T15:36:28.225Z,12.94
2023-11-20T15:39:31.270Z,13.22
2023-11-20T15:42:34.243Z,13.27
2023-11-20T15:45:38.258Z,13.25
2023-11-20T15:48:47.361Z,13.24
2023-11-20T15:51:50.528Z,13.10
2023-11-20T15:54:53.556Z,13.08
2023-11-20T15:57:56.744Z,13.16
2023-11-20T16:00:59.644Z,13.10
2023-11-20T16:04:04.664Z,13.06
2023-11-20T16:07:07.552Z,13.18
2023-11-20T16:10:16.903Z,13.06
2023-11-20T16:13:22.801Z,12.97
2023-11-20T16:16:26.145Z,12.83
2023-11-20T16:19:29.330Z,12.98
2023-11-20T16:22:32.576Z,12.79
2023-11-20T16:25:43.099Z,12.90
2023-11-20T16:28:51.249Z,12.86
2023-11-20T16:31:57.793Z,12.91
2023-11-20T16:35:01.176Z,12.87
2023-11-20T16:38:04.942Z,12.77
2023-11-20T16:41:08.773Z,12.83
2023-11-20T16:44:11.483Z,12.84
2023-11-20T16:47:16.441Z,12.82
2023-11-20T16:50:19.297Z,12.66
2023-11-20T16:53:22.476Z,12.58
2023-11-20T16:56:32.770Z,12.56
2023-11-20T16:59:36.196Z,12.47
2023-11-20T17:02:39.331Z,12.38
2023-11-20T17:05:48.682Z,12.30
2023-11-20T17:08:55.545Z,12.29
2023-11-20T17:11:59.936Z,12.10
2023-11-20T17:15:04.590Z,12.03
2023-11-20T17:18:08.666Z,11.99
2023-11-20T17:21:11.466Z,11.84
2023-11-20T17:24:14.596Z,11.96
2023-11-20T17:27:17.089Z,11.89
2023-11-20T17:30:21.214Z,11.65
2023-11-20T17:33:24.626Z,11.68
2023-11-20T17:36:28.446Z,11.63
2023-11-20T17:39:31.234Z,11.72
2023-11-20T17:42:35.493Z,11.64
2023-11-20T17:45:41.725Z,11.52
2023-11-20T17:48:46.436Z,11.48
2023-11-20T17:51:49.111Z,11.32
2023-11-20T17:54:55.317Z,11.54
2023-11-20T17:57:57.943Z,11.52
2023-11-20T18:01:02.118Z,11.26
2023-11-20T18:04:06.050Z,11.29
2023-11-20T18:07:12.768Z,11.44
2023-11-20T18:10:17.762Z,11.56
2023-11-20T18:13:20.767Z,11.47
2023-11-20T18:16:23.917Z,11.40
2023-11-20T18:19:27.034Z,11.55
2023-11-20T18:22:30.668Z,11.54
2023-11-20T18:25:33.708Z,11.43
2023-11-20T18:28:36.972Z,11.24
2023-11-20T18:31:41.710Z,11.13
2023-11-20T18:34:44.810Z,11.01
2023-11-20T18:37:47.870Z,10.92
2023-11-20T18:40:50.754Z,10.85
2023-11-20T18:43:53.964Z,10.80
2023-11-20T18:47:00.289Z,10.68
2023-11-20T18:50:05.286Z,10.60
2023-11-20T18:53:19.237Z,10.55
2023-11-20T18:56:29.786Z,10.52
2023-11-20T18:59:38.034Z,10.45
2023-11-20T19:02:43.315Z,10.47
2023-11-20T19:05:49.321Z,10.44
2023-11-20T19:08:53.147Z,10.41
2023-11-20T19:11:56.404Z,10.37
2023-11-20T19:15:00.071Z,10.43
2023-11-20T19:18:03.512Z,10.34
2023-11-20T19:21:07.099Z,10.27
2023-11-20T19:24:14.231Z,10.28
2023-11-20T19:27:17.748Z,10.36
2023-11-20T19:30:27.646Z,10.56
2023-11-20T19:33:32.568Z,10.36
2023-11-20T19:36:35.820Z,10.26
2023-11-20T19:39:40.049Z,10.24
2023-11-20T19:42:43.458Z,10.20
2023-11-20T19:45:47.450Z,10.13
2023-11-20T19:48:53.326Z,10.14
2023-11-20T19:51:56.659Z,10.06
2023-11-20T19:55:00.101Z,10.02
2023-11-20T19:58:05.659Z,10.06
2023-11-20T20:01:08.808Z,10.03
2023-11-20T20:04:16.137Z,10.05
2023-11-20T20:07:22.009Z,10.01
2023-11-20T20:10:26.387Z,9.94
2023-11-20T20:13:29.176Z,9.93
2023-11-20T20:16:32.527Z,9.98
2023-11-20T20:19:38.685Z,9.99
2023-11-20T20:22:42.116Z,9.95
2023-11-20T20:25:44.777Z,9.90
2023-11-20T20:28:50.616Z,9.95
2023-11-20T20:31:53.559Z,9.86
2023-11-20T20:34:56.712Z,9.81
2023-11-20T20:38:00.974Z,9.77
2023-11-20T20:41:04.526Z,9.76
2023-11-20T20:44:07.455Z,9.70
2023-11-20T20:47:10.921Z,9.67
2023-11-20T20:50:13.782Z,9.71
2023-11-20T20:53:17.217Z,9.66
2023-11-20T20:56:19.948Z,9.77
2023-11-20T20:59:23.408Z,9.69
2023-11-20T21:02:26.898Z,9.65
2023-11-20T21:05:30.961Z,9.64
2023-11-20T21:08:33.574Z,9.66
2023-11-20T21:11:37.647Z,9.68
2023-11-20T21:14:40.900Z,9.70
2023-11-20T21:17:46.271Z,9.67
2023-11-20T21:20:49.089Z,9.63
2023-11-20T21:23:56.860Z,9.63
2023-11-20T21:27:11.652Z,9.66
2023-11-20T21:30:18.129Z,9.69
2023-11-20T21:33:21.079Z,9.73
2023-11-20T21:36:28.414Z,9.69
2023-11-20T21:39:31.492Z,9.69
2023-11-20T21:42:36.488Z,9.71
2023-11-20T21:45:43.219Z,9.69
2023-11-20T21:48:51.223Z,9.67
2023-11-20T21:51:54.164Z,9.70
2023-11-20T21:54:58.808Z,9.68
2023-11-20T21:58:01.905Z,9.69
2023-11-20T22:01:07.971Z,9.73
2023-11-20T22:04:11.196Z,9.68
2023-11-20T22:07:16.556Z,9.68
2023-11-20T22:10:22.085Z,9.66
2023-11-20T22:13:27.363Z,9.86
2023-11-20T22:16:30.229Z,9.92
2023-11-20T22:19:33.841Z,9.74
2023-11-20T22:22:37.103Z,9.77
2023-11-20T22:25:40.087Z,9.66
2023-11-20T22:28:43.179Z,9.75
2023-11-20T22:31:46.384Z,9.64
2023-11-20T22:35:06.375Z,10.08
2023-11-20T22:38:14.375Z,10.15
2023-11-20T22:41:17.275Z,9.87
2023-11-20T22:44:20.531Z,9.63
2023-11-20T22:47:23.300Z,9.41
2023-11-20T22:50:26.263Z,9.36
2023-11-20T22:53:34.162Z,9.36
2023-11-20T22:56:40.563Z,9.28
2023-11-20T22:59:43.998Z,9.39
2023-11-20T23:02:47.079Z,9.39
2023-11-20T23:05:50.220Z,9.21
2023-11-20T23:08:57.010Z,9.19
2023-11-20T23:12:01.885Z,9.18
2023-11-20T23:15:06.196Z,9.19
2023-11-20T23:18:09.697Z,9.18
2023-11-20T23:21:13.000Z,9.14
2023-11-20T23:24:16.761Z,9.21
2023-11-20T23:27:19.797Z,9.16
2023-11-20T23:30:23.057Z,9.08
2023-11-20T23:33:26.273Z,9.08
2023-11-20T23:36:29.581Z,9.13
2023-11-20T23:39:32.460Z,9.12
2023-11-20T23:42:42.271Z,9.16
2023-11-20T23:45:50.913Z,9.12
2023-11-20T23:48:53.900Z,9.04
2023-11-20T23:51:56.796Z,9.11
2023-11-20T23:54:59.754Z,9.06
2023-11-20T23:58:02.805Z,9.03
